Time;durP1;ratioP1;P1;durP2;ratioP2;P2;SDS_P1;SDS_P2;PMS_P1;PMS_P2;Temp;Humidity;BMP_temperature;BMP_pressure;BME280_temperature;BME280_humidity;BME280_pressure;Samples;Min_cycle;Max_cycle;Signal;HPM_P1;HPM_P2
2021/04/28 04:02:20;;;;;;;3.10;2.55;;;3.10;99.90;;;;;;5130083;23;20311;-72
2021/04/28 04:04:46;;;;;;;2.80;2.70;;;3.10;99.90;;;;;;4975199;28;20226;-72
2021/04/28 04:07:12;;;;;;;3.60;3.40;;;3.10;99.90;;;;;;4974589;28;20212;-72
2021/04/28 04:09:38;;;;;;;3.03;2.85;;;3.10;99.90;;;;;;4974389;28;20706;-72
2021/04/28 04:12:05;;;;;;;3.03;2.83;;;3.10;99.90;;;;;;4974061;28;20232;-72
2021/04/28 04:14:32;;;;;;;2.85;2.60;;;3.10;99.90;;;;;;4973748;28;20579;-72
2021/04/28 04:16:58;;;;;;;2.58;2.38;;;3.10;99.90;;;;;;4974280;28;20585;-73
2021/04/28 04:19:25;;;;;;;2.67;2.47;;;3.10;99.90;;;;;;4974683;28;20312;-72
2021/04/28 04:21:51;;;;;;;2.42;2.33;;;3.10;99.90;;;;;;4974276;28;20291;-72
2021/04/28 04:24:17;;;;;;;2.97;2.80;;;3.10;99.90;;;;;;4973999;28;20212;-72
2021/04/28 04:26:43;;;;;;;3.25;2.95;;;3.20;99.90;;;;;;4974046;28;20241;-72
2021/04/28 04:29:10;;;;;;;2.65;2.45;;;3.20;99.90;;;;;;4973793;28;20219;-70
2021/04/28 04:31:36;;;;;;;3.13;2.92;;;3.20;99.90;;;;;;4973638;28;20706;-70
2021/04/28 04:34:03;;;;;;;2.95;2.75;;;3.30;99.90;;;;;;4973857;28;20743;-70
2021/04/28 04:36:31;;;;;;;4.50;3.10;;;3.40;99.90;;;;;;4974157;28;20316;-70
2021/04/28 04:38:57;;;;;;;3.50;3.20;;;3.40;99.90;;;;;;4974043;28;20217;-70
2021/04/28 04:41:23;;;;;;;2.78;2.58;;;3.50;99.90;;;;;;4974055;28;20235;-70
2021/04/28 04:43:50;;;;;;;3.42;3.13;;;3.60;99.90;;;;;;4973525;28;20208;-70
2021/04/28 04:46:16;;;;;;;3.42;3.22;;;3.70;99.90;;;;;;4973268;28;20219;-70
2021/04/28 04:48:42;;;;;;;3.63;3.33;;;4.10;99.90;;;;;;4974195;28;20279;-70
2021/04/28 04:51:08;;;;;;;5.13;3.22;;;4.30;99.90;;;;;;4973674;28;20236;-70
2021/04/28 04:53:35;;;;;;;2.80;2.70;;;4.40;99.90;;;;;;4973777;28;20212;-70
2021/04/28 04:56:02;;;;;;;3.00;2.88;;;4.40;99.90;;;;;;4973736;28;20253;-70
2021/04/28 04:58:28;;;;;;;2.80;2.58;;;4.50;99.90;;;;;;4973330;28;20208;-70
2021/04/28 05:00:54;;;;;;;3.20;3.00;;;4.60;99.90;;;;;;4973110;28;20236;-70
2021/04/28 05:03:20;;;;;;;3.00;2.90;;;4.60;99.90;;;;;;4973864;28;20209;-70
2021/04/28 05:05:46;;;;;;;3.00;2.80;;;4.60;99.90;;;;;;4973748;28;20212;-70
2021/04/28 05:08:12;;;;;;;3.03;2.92;;;4.60;99.90;;;;;;4973822;28;20216;-70
2021/04/28 05:10:41;;;;;;;3.00;2.90;;;4.60;99.90;;;;;;4973447;28;20665;-70
2021/04/28 05:13:07;;;;;;;2.92;2.83;;;4.70;99.90;;;;;;4972956;28;20205;-70
2021/04/28 05:15:33;;;;;;;3.47;3.28;;;4.80;99.90;;;;;;4973139;28;20208;-70
2021/04/28 05:17:59;;;;;;;3.83;3.60;;;5.00;99.90;;;;;;4973932;28;20668;-72
2021/04/28 05:20:26;;;;;;;3.17;2.85;;;5.10;99.90;;;;;;4973452;28;20230;-72
2021/04/28 05:22:53;;;;;;;3.80;3.60;;;5.00;99.90;;;;;;4973501;28;20247;-73
2021/04/28 05:25:19;;;;;;;3.55;3.45;;;5.20;99.90;;;;;;4973759;28;20212;-72
2021/04/28 05:27:46;;;;;;;3.72;3.20;;;5.20;99.90;;;;;;4977069;28;20366;-72
2021/04/28 05:30:14;;;;;;;3.10;3.00;;;5.20;99.90;;;;;;4977231;28;20216;-72
2021/04/28 05:32:41;;;;;;;3.78;3.45;;;5.30;99.90;;;;;;4977436;28;20282;-72
2021/04/28 05:35:08;;;;;;;3.80;3.53;;;5.40;99.90;;;;;;4977312;28;20212;-72
2021/04/28 05:37:35;;;;;;;4.28;3.92;;;5.50;99.90;;;;;;4977359;28;20212;-72
2021/04/28 05:40:01;;;;;;;4.00;3.70;;;5.60;99.90;;;;;;4977253;28;20270;-73
2021/04/28 05:42:30;;;;;;;5.43;3.88;;;5.80;99.90;;;;;;4976741;28;20258;-73
2021/04/28 05:44:58;;;;;;;3.55;3.35;;;6.00;99.90;;;;;;4977188;28;20212;-72
2021/04/28 05:47:24;;;;;;;3.40;3.20;;;6.20;99.90;;;;;;4977419;28;20692;-72
2021/04/28 05:49:50;;;;;;;5.07;4.05;;;6.40;99.90;;;;;;4977502;28;20204;-72
2021/04/28 05:52:16;;;;;;;3.60;3.40;;;6.50;99.90;;;;;;4977227;28;20233;-72
2021/04/28 05:54:43;;;;;;;4.20;3.90;;;6.70;99.90;;;;;;4977721;28;20238;-73
2021/04/28 05:57:10;;;;;;;4.15;3.85;;;6.90;99.90;;;;;;4979166;28;20275;-73
2021/04/28 05:59:36;;;;;;;4.85;4.45;;;7.10;99.90;;;;;;4978294;28;20255;-72
2021/04/28 06:02:03;;;;;;;4.40;4.00;;;7.50;99.90;;;;;;4976643;28;20696;-72
2021/04/28 06:04:29;;;;;;;4.78;4.47;;;7.70;99.90;;;;;;4977100;28;20617;-73
2021/04/28 06:06:55;;;;;;;5.30;4.90;;;7.80;99.90;;;;;;4976740;28;20216;-72
2021/04/28 06:09:21;;;;;;;5.07;4.68;;;7.90;99.90;;;;;;4976764;28;20212;-73
2021/04/28 06:11:48;;;;;;;6.38;5.40;;;8.20;99.90;;;;;;4976577;28;20240;-72
2021/04/28 06:14:14;;;;;;;7.65;4.65;;;8.40;99.90;;;;;;4976294;28;20216;-72
2021/04/28 06:16:40;;;;;;;4.63;4.32;;;8.70;99.90;;;;;;4976326;28;20212;-73
2021/04/28 06:19:07;;;;;;;6.43;5.50;;;8.70;99.90;;;;;;4976799;28;20209;-73
2021/04/28 06:21:33;;;;;;;5.10;4.65;;;8.90;99.90;;;;;;4976429;28;20228;-74
2021/04/28 06:24:03;;;;;;;5.47;5.18;;;9.20;99.90;;;;;;4976154;28;20272;-71
2021/04/28 06:26:30;;;;;;;5.10;4.65;;;9.50;99.80;;;;;;4976368;28;20208;-72
2021/04/28 06:28:56;;;;;;;6.07;4.82;;;9.70;99.90;;;;;;4976117;28;20301;-72
2021/04/28 06:31:22;;;;;;;5.60;5.20;;;9.80;98.70;;;;;;4975894;28;20593;-72
2021/04/28 06:33:48;;;;;;;5.55;5.05;;;10.00;95.90;;;;;;4976379;28;20316;-72
2021/04/28 06:36:15;;;;;;;6.00;5.50;;;10.40;94.90;;;;;;4978319;28;20209;-73
2021/04/28 06:38:42;;;;;;;5.70;5.37;;;10.90;93.10;;;;;;4976580;28;20300;-72
2021/04/28 06:41:08;;;;;;;6.47;5.97;;;11.30;91.00;;;;;;4976526;28;20484;-73
2021/04/28 06:43:34;;;;;;;5.30;5.00;;;11.50;89.80;;;;;;4975412;28;20490;-73
2021/04/28 06:46:00;;;;;;;9.50;8.83;;;12.00;88.60;;;;;;4975441;28;20467;-73
2021/04/28 06:48:26;;;;;;;13.80;6.20;;;12.10;85.20;;;;;;4976206;28;20467;-73
2021/04/28 06:50:53;;;;;;;5.60;5.30;;;12.40;84.30;;;;;;4975703;28;20499;-73
2021/04/28 06:53:22;;;;;;;5.50;5.00;;;12.40;82.40;;;;;;4975845;28;20471;-74
2021/04/28 06:55:48;;;;;;;5.97;5.57;;;12.80;82.10;;;;;;4975613;28;20467;-74
2021/04/28 06:58:15;;;;;;;5.53;5.23;;;13.00;80.40;;;;;;4975618;28;20463;-74
2021/04/28 07:00:42;;;;;;;6.37;6.00;;;12.80;78.40;;;;;;4975390;28;20499;-73
2021/04/28 07:03:08;;;;;;;5.30;5.00;;;13.00;79.70;;;;;;4975455;28;20522;-73
2021/04/28 07:05:34;;;;;;;5.93;5.53;;;13.40;77.20;;;;;;4975551;28;20467;-72
2021/04/28 07:08:01;;;;;;;6.10;5.73;;;13.70;76.10;;;;;;4975341;28;20542;-72
2021/04/28 07:10:28;;;;;;;6.20;5.70;;;13.80;75.10;;;;;;4975766;28;20496;-73
2021/04/28 07:12:54;;;;;;;7.23;6.67;;;13.80;73.80;;;;;;4975012;28;20526;-73
2021/04/28 07:15:21;;;;;;;6.33;5.93;;;14.10;72.20;;;;;;4975030;28;20464;-73
2021/04/28 07:17:47;;;;;;;5.70;5.40;;;13.50;72.30;;;;;;4975487;28;20968;-73
2021/04/28 07:20:14;;;;;;;6.30;5.90;;;13.00;74.30;;;;;;4975120;28;20483;-72
2021/04/28 07:22:41;;;;;;;6.67;6.10;;;13.30;73.90;;;;;;4975517;28;20456;-73
2021/04/28 07:25:08;;;;;;;5.50;5.07;;;13.70;72.60;;;;;;4975192;28;20468;-73
2021/04/28 07:27:35;;;;;;;5.77;5.37;;;14.00;72.80;;;;;;4974916;28;20464;-73
2021/04/28 07:30:01;;;;;;;6.67;6.00;;;14.20;71.40;;;;;;4975106;28;20470;-73
2021/04/28 07:32:28;;;;;;;6.50;6.00;;;13.70;71.30;;;;;;4974965;28;20491;-73
2021/04/28 07:34:54;;;;;;;6.20;5.80;;;13.30;72.00;;;;;;4975077;28;20472;-73
2021/04/28 07:37:20;;;;;;;5.53;5.20;;;13.30;73.50;;;;;;4975189;28;20467;-72
2021/04/28 07:39:46;;;;;;;5.73;5.30;;;13.00;73.80;;;;;;4974957;28;20555;-73
2021/04/28 07:42:13;;;;;;;6.10;5.70;;;12.90;74.70;;;;;;4974457;28;20824;-73
2021/04/28 07:44:40;;;;;;;6.90;6.30;;;13.00;74.70;;;;;;4974750;28;20938;-73
2021/04/28 07:47:06;;;;;;;6.30;5.90;;;12.70;75.20;;;;;;4975068;28;20464;-72
2021/04/28 07:49:32;;;;;;;6.13;5.72;;;12.20;75.80;;;;;;4973758;28;20467;-72
2021/04/28 07:51:58;;;;;;;8.02;6.40;;;11.50;77.10;;;;;;4974892;28;20291;-72
2021/04/28 07:54:27;;;;;;;6.65;6.10;;;11.10;79.20;;;;;;4975079;28;20552;-73
2021/04/28 07:56:54;;;;;;;6.53;6.07;;;11.10;79.80;;;;;;4974699;28;20325;-72
2021/04/28 07:59:20;;;;;;;7.22;6.43;;;11.00;79.20;;;;;;4974691;28;20228;-73
2021/04/28 08:01:47;;;;;;;7.10;6.43;;;11.00;79.60;;;;;;4974394;28;20236;-73
2021/04/28 08:04:13;;;;;;;6.55;6.15;;;11.00;78.20;;;;;;4974613;28;20216;-73
2021/04/28 08:06:39;;;;;;;7.55;6.95;;;11.10;78.90;;;;;;4974792;28;20223;-72
2021/04/28 08:09:06;;;;;;;6.85;6.15;;;11.20;77.90;;;;;;4974985;28;20212;-72
2021/04/28 08:11:32;;;;;;;8.68;7.88;;;11.10;77.80;;;;;;4975133;28;20656;-73
2021/04/28 08:13:59;;;;;;;7.80;7.20;;;11.20;77.10;;;;;;4975082;28;20212;-73
2021/04/28 08:16:25;;;;;;;7.45;6.95;;;11.20;76.80;;;;;;4974825;28;20616;-73
2021/04/28 08:18:52;;;;;;;8.48;6.15;;;11.30;75.60;;;;;;4975773;28;20235;-72
2021/04/28 08:21:18;;;;;;;7.45;6.85;;;11.30;75.10;;;;;;4977108;28;20224;-72
2021/04/28 08:23:44;;;;;;;7.88;6.90;;;11.40;76.10;;;;;;4977788;28;20213;-72
2021/04/28 08:26:13;;;;;;;7.95;7.18;;;11.70;75.20;;;;;;4978154;28;20288;-72
2021/04/28 08:28:41;;;;;;;7.07;6.50;;;11.80;75.00;;;;;;4979163;28;20665;-72
2021/04/28 08:31:08;;;;;;;6.35;5.85;;;11.70;74.10;;;;;;4979015;28;20224;-72
2021/04/28 08:33:34;;;;;;;7.57;7.00;;;11.70;74.40;;;;;;4978416;28;20212;-72
2021/04/28 08:36:01;;;;;;;6.70;5.70;;;11.70;74.50;;;;;;4974547;28;20205;-73
2021/04/28 08:38:28;;;;;;;7.22;6.60;;;11.70;74.90;;;;;;4974372;28;20208;-73
2021/04/28 08:40:54;;;;;;;6.80;6.30;;;11.80;74.70;;;;;;4974352;28;20244;-73
2021/04/28 08:43:23;;;;;;;7.47;6.80;;;12.00;75.10;;;;;;4973578;28;20672;-72
2021/04/28 08:45:49;;;;;;;7.60;6.80;;;12.00;75.70;;;;;;4973625;28;20219;-73
2021/04/28 08:48:15;;;;;;;8.40;7.60;;;12.00;76.30;;;;;;4974510;28;20246;-73
2021/04/28 08:50:42;;;;;;;7.10;6.47;;;12.00;77.10;;;;;;4973539;28;20247;-72
2021/04/28 08:53:12;;;;;;;6.47;5.97;;;12.10;76.00;;;;;;4974064;28;20220;-73
2021/04/28 08:55:38;;;;;;;7.55;6.85;;;12.20;76.30;;;;;;4973941;28;20209;-73
2021/04/28 08:58:04;;;;;;;6.88;6.25;;;12.40;75.80;;;;;;4973506;28;20260;-72
2021/04/28 09:00:31;;;;;;;8.30;6.50;;;12.40;76.20;;;;;;4973709;28;20240;-72
2021/04/28 09:03:00;;;;;;;9.90;7.32;;;12.30;76.10;;;;;;4974480;28;20635;-72
2021/04/28 09:05:26;;;;;;;7.25;6.55;;;12.30;76.60;;;;;;4981755;28;20213;-73
2021/04/28 09:07:52;;;;;;;7.03;6.53;;;12.40;76.50;;;;;;4975290;28;20576;-72
2021/04/28 09:10:21;;;;;;;7.70;7.10;;;12.60;74.50;;;;;;4973656;28;20212;-72
2021/04/28 09:12:53;;;;;;;7.88;7.18;;;12.60;74.70;;;;;;4972640;28;20232;-72
2021/04/28 09:15:35;;;;;;;9.00;7.13;;;12.70;74.00;;;;;;4973104;28;20219;-73
2021/04/28 09:18:02;;;;;;;7.07;6.38;;;12.80;75.50;;;;;;4973710;28;20224;-73
2021/04/28 09:20:31;;;;;;;9.95;6.93;;;12.90;70.70;;;;;;4973122;28;20232;-73
2021/04/28 09:23:09;;;;;;;6.90;6.28;;;12.90;68.70;;;;;;4973232;28;20219;-70
2021/04/28 09:25:39;;;;;;;7.60;6.95;;;13.00;68.90;;;;;;4973878;28;20208;-70
2021/04/28 09:28:21;;;;;;;7.55;6.95;;;13.10;68.60;;;;;;4973225;28;20299;-70
2021/04/28 09:30:48;;;;;;;5.50;5.10;;;13.10;66.60;;;;;;4972605;28;20228;-69
2021/04/28 09:33:14;;;;;;;8.98;8.15;;;13.20;66.90;;;;;;4972972;28;20239;-69
2021/04/28 09:35:40;;;;;;;9.55;7.43;;;13.40;66.60;;;;;;4972825;28;20209;-70
2021/04/28 09:38:07;;;;;;;8.38;7.50;;;13.50;65.80;;;;;;4973257;28;20227;-70
2021/04/28 09:40:42;;;;;;;8.48;7.68;;;13.60;66.80;;;;;;4973685;28;20232;-70
2021/04/28 09:43:09;;;;;;;8.50;7.45;;;13.60;66.30;;;;;;4972727;28;20219;-72
2021/04/28 09:45:42;;;;;;;6.53;6.07;;;13.80;67.00;;;;;;4973372;28;20731;-72
2021/04/28 09:48:17;;;;;;;7.60;6.85;;;14.00;65.50;;;;;;4973022;28;20254;-71
2021/04/28 09:50:43;;;;;;;8.35;7.55;;;14.10;64.50;;;;;;4972960;28;20600;-71
2021/04/28 09:53:21;;;;;;;7.28;6.53;;;14.10;62.40;;;;;;4972844;28;20295;-69
2021/04/28 09:55:48;;;;;;;7.72;7.13;;;14.00;62.40;;;;;;4973010;28;20204;-69
2021/04/28 09:58:14;;;;;;;8.50;7.90;;;14.20;63.20;;;;;;4973048;28;20231;-69
2021/04/28 10:00:40;;;;;;;8.65;7.45;;;14.10;62.10;;;;;;4972864;28;20357;-70
2021/04/28 10:03:08;;;;;;;7.80;7.20;;;13.90;61.80;;;;;;4974171;28;20300;-72
2021/04/28 10:05:36;;;;;;;10.13;7.90;;;14.00;63.30;;;;;;4974405;28;20270;-72
2021/04/28 10:08:11;;;;;;;8.70;7.57;;;14.20;62.00;;;;;;4973390;28;20213;-72
2021/04/28 10:10:38;;;;;;;8.93;8.00;;;14.20;61.00;;;;;;4973430;28;20605;-72
2021/04/28 10:13:06;;;;;;;8.80;8.10;;;14.30;61.50;;;;;;4973121;28;20251;-71
2021/04/28 10:15:32;;;;;;;8.82;7.93;;;14.40;62.20;;;;;;4976538;28;20267;-72
2021/04/28 10:18:03;;;;;;;11.40;8.18;;;14.50;61.50;;;;;;4976646;28;20209;-72
2021/04/28 10:20:31;;;;;;;7.07;6.53;;;14.50;61.60;;;;;;4976458;28;20256;-71
2021/04/28 10:23:03;;;;;;;8.23;7.37;;;14.60;61.30;;;;;;4976362;28;20795;-71
2021/04/28 10:25:29;;;;;;;8.33;7.50;;;14.60;61.50;;;;;;4976269;28;20474;-72
2021/04/28 10:27:57;;;;;;;8.13;7.43;;;14.80;62.30;;;;;;4975876;28;20472;-72
2021/04/28 10:30:24;;;;;;;9.43;8.63;;;14.80;60.80;;;;;;4976719;28;20468;-72
2021/04/28 10:32:52;;;;;;;8.00;7.20;;;14.80;59.70;;;;;;4976103;28;20855;-72
2021/04/28 10:35:20;;;;;;;9.97;8.27;;;14.70;61.00;;;;;;4976394;28;20460;-72
2021/04/28 10:37:50;;;;;;;7.78;7.28;;;14.80;61.50;;;;;;4976802;28;20834;-72
2021/04/28 10:40:18;;;;;;;8.87;8.07;;;14.90;61.50;;;;;;4976173;28;20208;-72
2021/04/28 10:42:44;;;;;;;12.87;8.43;;;15.00;60.40;;;;;;4975956;28;20464;-72
2021/04/28 10:45:12;;;;;;;9.10;7.60;;;15.00;59.80;;;;;;4975565;28;20559;-72
2021/04/28 10:47:41;;;;;;;11.97;7.33;;;15.10;59.00;;;;;;4976037;28;20953;-72
2021/04/28 10:50:14;;;;;;;10.00;8.40;;;15.20;59.60;;;;;;4976170;28;20511;-72
2021/04/28 10:52:49;;;;;;;8.87;8.07;;;15.20;58.80;;;;;;4975597;28;20491;-71
2021/04/28 10:55:39;;;;;;;9.27;8.47;;;15.20;59.10;;;;;;4976082;28;20559;-72
2021/04/28 10:58:44;;;;;;;8.13;7.33;;;15.40;59.00;;;;;;4975422;28;20467;-72
2021/04/28 11:01:28;;;;;;;5.70;5.20;;;15.50;58.70;;;;;;4974951;28;20534;-72
2021/04/28 11:03:57;;;;;;;8.43;7.73;;;15.60;57.40;;;;;;4975774;28;20804;-71
2021/04/28 11:06:44;;;;;;;8.37;7.67;;;15.60;57.40;;;;;;4975616;28;20588;-72
2021/04/28 11:09:21;;;;;;;9.27;8.47;;;15.70;58.00;;;;;;4971212;28;20527;-72
2021/04/28 11:12:05;;;;;;;8.37;7.77;;;15.70;57.00;;;;;;4975369;28;20495;-72
2021/04/28 11:14:51;;;;;;;9.40;8.43;;;15.60;57.60;;;;;;4975397;28;20518;-71
2021/04/28 11:17:26;;;;;;;8.27;7.53;;;15.90;57.70;;;;;;4973161;28;20464;-72
2021/04/28 11:19:55;;;;;;;9.00;8.10;;;16.00;57.10;;;;;;4975793;28;20467;-71
2021/04/28 11:22:27;;;;;;;8.27;7.47;;;16.10;57.00;;;;;;4975191;28;20814;-72
2021/04/28 11:24:58;;;;;;;11.97;9.60;;;16.10;56.80;;;;;;4975131;28;20464;-72
2021/04/28 11:27:44;;;;;;;8.93;8.23;;;16.00;57.20;;;;;;4975293;28;20475;-70
2021/04/28 11:30:49;;;;;;;9.73;8.83;;;16.10;57.70;;;;;;4975186;28;20571;-70
2021/04/28 11:33:39;;;;;;;11.07;8.53;;;16.10;56.40;;;;;;4960882;28;20487;-70
2021/04/28 11:36:13;;;;;;;9.67;8.87;;;16.20;56.80;;;;;;4975729;28;20522;-70
2021/04/28 11:38:43;;;;;;;8.47;7.10;;;16.20;56.70;;;;;;4975643;28;20464;-70
2021/04/28 11:41:12;;;;;;;9.93;8.90;;;16.30;57.10;;;;;;4975520;28;20837;-71
2021/04/28 11:43:41;;;;;;;9.43;8.33;;;16.40;56.50;;;;;;4974681;28;20597;-71
2021/04/28 11:46:09;;;;;;;9.80;9.00;;;16.30;56.30;;;;;;4974535;28;20460;-71
2021/04/28 11:48:37;;;;;;;11.93;8.73;;;16.30;57.20;;;;;;4975400;28;20935;-70
2021/04/28 11:51:06;;;;;;;10.20;9.20;;;16.40;57.30;;;;;;4974740;28;20582;-71
2021/04/28 11:53:40;;;;;;;9.23;8.30;;;16.60;56.80;;;;;;4975652;28;20464;-71
2021/04/28 11:56:06;;;;;;;9.50;8.53;;;16.70;55.70;;;;;;4975340;28;20986;-73
2021/04/28 11:58:33;;;;;;;10.00;9.10;;;16.70;56.70;;;;;;4974618;28;20463;-73
2021/04/28 12:01:05;;;;;;;12.17;9.20;;;16.80;56.50;;;;;;4974270;28;20829;-74
2021/04/28 12:03:53;;;;;;;10.17;9.27;;;16.90;56.50;;;;;;4974879;28;20464;-74
2021/04/28 12:06:34;;;;;;;11.00;9.40;;;16.90;55.60;;;;;;4974775;28;20471;-73
2021/04/28 12:09:30;;;;;;;8.90;8.00;;;16.90;56.00;;;;;;4976614;28;20495;-72
2021/04/28 12:12:17;;;;;;;8.90;8.10;;;17.00;55.80;;;;;;4971778;28;21036;-72
2021/04/28 12:14:46;;;;;;;8.10;7.33;;;16.90;56.30;;;;;;4975713;28;20460;-70
2021/04/28 12:17:13;;;;;;;11.27;10.07;;;17.00;55.70;;;;;;4975262;28;20894;-72
2021/04/28 12:19:43;;;;;;;10.70;9.70;;;16.90;55.40;;;;;;4974809;28;20979;-72
2021/04/28 12:22:10;;;;;;;11.13;9.80;;;16.80;56.60;;;;;;4974197;28;20535;-73
2021/04/28 12:24:38;;;;;;;10.47;9.43;;;16.80;56.70;;;;;;4974214;28;20788;-73
2021/04/28 12:27:13;;;;;;;12.53;10.33;;;16.90;57.10;;;;;;4974388;28;20467;-70
2021/04/28 12:29:41;;;;;;;10.80;9.03;;;16.90;56.50;;;;;;4974300;28;20478;-73
2021/04/28 12:32:08;;;;;;;10.97;9.93;;;16.90;56.80;;;;;;4973976;28;20487;-74
2021/04/28 12:34:36;;;;;;;10.57;9.53;;;16.90;55.60;;;;;;4974016;28;20463;-73
2021/04/28 12:37:15;;;;;;;8.80;8.03;;;17.10;56.40;;;;;;4973516;28;20464;-71
2021/04/28 12:39:48;;;;;;;12.00;9.33;;;17.20;56.60;;;;;;4974016;28;20467;-73
2021/04/28 12:42:15;;;;;;;10.67;9.63;;;17.20;56.70;;;;;;4973345;28;20892;-70
2021/04/28 12:44:41;;;;;;;11.17;10.07;;;17.10;56.20;;;;;;4973425;28;21004;-70
2021/04/28 12:47:08;;;;;;;9.57;8.23;;;17.00;56.70;;;;;;4973799;28;20468;-70
2021/04/28 12:49:36;;;;;;;19.30;14.60;;;17.00;56.50;;;;;;4973852;28;20955;-71
2021/04/28 12:52:13;;;;;;;13.90;11.00;;;17.10;57.10;;;;;;4973479;28;20971;-71
2021/04/28 12:54:39;;;;;;;18.40;12.60;;;17.20;56.30;;;;;;4973973;28;20804;-70
2021/04/28 12:57:19;;;;;;;13.37;9.83;;;17.10;56.20;;;;;;4973506;28;20518;-72
2021/04/28 13:00:03;;;;;;;9.50;8.60;;;17.20;56.10;;;;;;4973303;28;20468;-72
2021/04/28 13:02:29;;;;;;;13.03;11.37;;;17.20;56.40;;;;;;4973423;28;20506;-72
2021/04/28 13:04:55;;;;;;;13.27;11.57;;;17.30;56.80;;;;;;4973713;28;20475;-73
2021/04/28 13:07:24;;;;;;;17.37;14.37;;;17.30;57.60;;;;;;4973352;28;20506;-73
2021/04/28 13:09:50;;;;;;;12.87;11.60;;;17.30;57.50;;;;;;4973499;28;20483;-73
2021/04/28 13:12:33;;;;;;;13.30;10.40;;;17.40;57.20;;;;;;4972702;28;20503;-73
2021/04/28 13:15:01;;;;;;;10.27;9.33;;;17.30;56.30;;;;;;4973058;28;20562;-73
2021/04/28 13:17:27;;;;;;;12.53;10.70;;;17.30;56.20;;;;;;4973452;28;20574;-70
2021/04/28 13:19:53;;;;;;;20.43;16.03;;;17.50;57.00;;;;;;4973633;28;20630;-70
2021/04/28 13:22:21;;;;;;;17.60;15.43;;;17.40;56.20;;;;;;4973276;28;20847;-70
2021/04/28 13:24:48;;;;;;;10.07;9.20;;;17.30;56.30;;;;;;4973320;28;20883;-73
2021/04/28 13:27:16;;;;;;;12.90;10.03;;;17.40;56.40;;;;;;4973514;28;20468;-72
2021/04/28 13:29:55;;;;;;;10.73;9.67;;;17.60;56.70;;;;;;4972794;28;20979;-71
2021/04/28 13:32:38;;;;;;;18.83;16.50;;;17.80;55.90;;;;;;4973264;28;20503;-71
2021/04/28 13:35:15;;;;;;;12.67;11.30;;;17.70;56.80;;;;;;4973603;28;20468;-71
2021/04/28 13:37:44;;;;;;;20.53;16.87;;;17.70;56.30;;;;;;4973996;28;20482;-73
2021/04/28 13:40:17;;;;;;;11.77;10.77;;;17.70;56.50;;;;;;4974222;28;20464;-73
2021/04/28 13:42:43;;;;;;;10.80;9.67;;;17.80;56.30;;;;;;4973534;28;20474;-74
2021/04/28 13:45:12;;;;;;;10.37;9.13;;;17.90;56.20;;;;;;4973682;28;20541;-72
2021/04/28 13:47:38;;;;;;;12.40;10.30;;;18.10;56.10;;;;;;4975268;28;20543;-73
2021/04/28 13:50:06;;;;;;;13.30;10.30;;;18.10;55.60;;;;;;4977886;28;20463;-70
2021/04/28 13:52:32;;;;;;;14.33;12.37;;;18.20;55.70;;;;;;4976907;28;20487;-72
2021/04/28 13:54:59;;;;;;;9.63;7.47;;;18.20;56.00;;;;;;4977235;28;20464;-72
2021/04/28 13:57:26;;;;;;;16.63;14.27;;;18.30;55.90;;;;;;4976816;28;20951;-73
2021/04/28 13:59:52;;;;;;;7.53;6.93;;;18.50;55.70;;;;;;4976759;28;20530;-73
2021/04/28 14:02:19;;;;;;;10.73;9.73;;;18.50;55.00;;;;;;4976531;28;20602;-73
2021/04/28 14:04:45;;;;;;;11.23;10.07;;;18.40;55.40;;;;;;4976934;28;20562;-70
2021/04/28 14:07:11;;;;;;;11.97;10.60;;;18.60;55.50;;;;;;4976740;28;20476;-71
2021/04/28 14:09:37;;;;;;;12.13;9.83;;;18.60;54.40;;;;;;4976615;28;20459;-71
2021/04/28 14:12:04;;;;;;;12.67;11.37;;;18.50;54.20;;;;;;4976112;28;20514;-71
2021/04/28 14:14:30;;;;;;;12.70;11.50;;;18.60;55.10;;;;;;4976623;28;20467;-72
2021/04/28 14:16:58;;;;;;;11.97;10.67;;;18.70;55.40;;;;;;4976352;28;20463;-72
2021/04/28 14:19:26;;;;;;;11.03;9.87;;;18.90;54.60;;;;;;4976634;28;20468;-72
2021/04/28 14:21:52;;;;;;;9.73;8.70;;;19.00;54.60;;;;;;4976505;28;20484;-71
2021/04/28 14:24:19;;;;;;;10.73;9.80;;;18.90;54.50;;;;;;4976499;28;20852;-71
2021/04/28 14:26:45;;;;;;;9.83;8.80;;;18.90;54.40;;;;;;4977123;28;20828;-70
2021/04/28 14:29:11;;;;;;;11.10;10.00;;;19.00;54.60;;;;;;4976932;28;20575;-70
2021/04/28 14:31:37;;;;;;;10.53;9.63;;;19.00;54.00;;;;;;4976052;28;20502;-70
2021/04/28 14:34:04;;;;;;;14.37;9.87;;;18.90;54.50;;;;;;4976177;28;20820;-71
2021/04/28 14:36:31;;;;;;;12.57;10.13;;;19.00;53.90;;;;;;4976622;28;20464;-71
2021/04/28 14:38:57;;;;;;;12.10;10.07;;;18.90;53.60;;;;;;4976563;28;20550;-73
2021/04/28 14:41:23;;;;;;;9.80;9.00;;;18.80;54.10;;;;;;4976510;28;20616;-74
2021/04/28 14:43:49;;;;;;;11.13;9.90;;;18.70;54.10;;;;;;4975832;28;20490;-73
2021/04/28 14:46:16;;;;;;;9.63;8.83;;;18.70;55.00;;;;;;4975658;28;20464;-73
2021/04/28 14:48:42;;;;;;;10.93;9.73;;;18.60;54.30;;;;;;4977017;28;20463;-73
2021/04/28 14:51:14;;;;;;;9.67;8.70;;;18.70;54.10;;;;;;4976214;28;20483;-73
2021/04/28 14:53:41;;;;;;;11.90;10.33;;;19.00;54.40;;;;;;4976183;28;20506;-74
2021/04/28 14:56:08;;;;;;;10.93;9.83;;;18.90;53.60;;;;;;4975833;28;20463;-74
2021/04/28 14:58:36;;;;;;;11.03;9.47;;;18.90;54.30;;;;;;4974842;28;20814;-72
2021/04/28 15:01:03;;;;;;;10.60;9.50;;;19.00;54.90;;;;;;4975464;28;20594;-71
2021/04/28 15:03:29;;;;;;;9.23;8.43;;;19.10;54.10;;;;;;4976151;28;20460;-71
2021/04/28 15:05:56;;;;;;;9.77;8.80;;;19.20;54.10;;;;;;4976070;28;20546;-71
2021/04/28 15:08:22;;;;;;;9.90;9.00;;;19.10;53.60;;;;;;4976522;28;20483;-70
2021/04/28 15:10:49;;;;;;;9.67;8.77;;;18.90;53.60;;;;;;4975875;28;21004;-70
2021/04/28 15:13:17;;;;;;;9.17;8.47;;;18.80;52.50;;;;;;4975314;28;20492;-71
2021/04/28 15:15:43;;;;;;;10.10;9.17;;;18.80;52.90;;;;;;4975393;28;20475;-70
2021/04/28 15:18:10;;;;;;;10.67;9.10;;;18.70;53.10;;;;;;4976207;28;20540;-70
2021/04/28 15:20:36;;;;;;;10.77;9.90;;;18.70;53.10;;;;;;4976278;28;20488;-70
2021/04/28 15:23:03;;;;;;;9.80;9.03;;;18.80;53.00;;;;;;4975989;28;20464;-70
2021/04/28 15:25:29;;;;;;;8.70;8.00;;;18.80;53.20;;;;;;4975927;28;20931;-71
2021/04/28 15:27:56;;;;;;;8.67;7.87;;;18.90;53.00;;;;;;4975527;28;20468;-71
2021/04/28 15:30:23;;;;;;;10.80;9.77;;;19.00;53.10;;;;;;4975633;28;20467;-71
2021/04/28 15:32:49;;;;;;;10.47;9.47;;;19.00;52.90;;;;;;4975834;28;20952;-70
2021/04/28 15:35:15;;;;;;;10.43;9.53;;;19.00;52.30;;;;;;4976767;28;20468;-71
2021/04/28 15:37:41;;;;;;;9.17;8.53;;;19.00;52.40;;;;;;4977874;28;20781;-71
2021/04/28 15:40:09;;;;;;;9.50;8.60;;;19.00;52.40;;;;;;4978497;28;20467;-71
2021/04/28 15:42:35;;;;;;;9.77;8.97;;;19.10;52.70;;;;;;4979844;28;20456;-72
2021/04/28 15:45:03;;;;;;;9.43;8.73;;;19.10;52.70;;;;;;4976877;28;20464;-70
2021/04/28 15:47:29;;;;;;;10.20;9.13;;;19.10;52.10;;;;;;4975645;28;20804;-70
2021/04/28 15:49:55;;;;;;;9.20;8.30;;;19.10;52.20;;;;;;4975164;28;20957;-73
2021/04/28 15:52:21;;;;;;;9.17;8.47;;;19.10;52.40;;;;;;4974501;28;20630;-73
2021/04/28 15:54:48;;;;;;;8.47;7.77;;;19.00;52.20;;;;;;4974534;28;20467;-73
2021/04/28 15:57:15;;;;;;;8.60;8.00;;;18.90;52.20;;;;;;4974411;28;20538;-73
2021/04/28 15:59:41;;;;;;;9.47;8.60;;;18.80;52.70;;;;;;4974349;28;20468;-72
2021/04/28 16:02:08;;;;;;;10.73;9.73;;;18.70;52.70;;;;;;4974270;28;20551;-71
2021/04/28 16:04:34;;;;;;;9.23;8.30;;;18.70;52.50;;;;;;4974722;28;20467;-71
2021/04/28 16:07:00;;;;;;;10.07;9.07;;;18.70;53.10;;;;;;4974485;28;20928;-71
2021/04/28 16:09:27;;;;;;;10.00;9.10;;;18.80;52.80;;;;;;4974792;28;20491;-71
2021/04/28 16:11:54;;;;;;;9.30;8.50;;;18.80;52.00;;;;;;4973910;28;20498;-72
2021/04/28 16:14:20;;;;;;;10.20;9.03;;;18.70;51.60;;;;;;4974143;28;20471;-71
2021/04/28 16:16:47;;;;;;;9.20;8.00;;;18.50;52.10;;;;;;4974539;28;20466;-72
2021/04/28 16:19:14;;;;;;;14.00;7.67;;;18.50;52.20;;;;;;4974700;28;20467;-71
2021/04/28 16:21:40;;;;;;;8.93;8.13;;;18.50;51.90;;;;;;4974514;28;20490;-70
2021/04/28 16:24:07;;;;;;;10.07;9.10;;;18.40;51.70;;;;;;4974064;28;20475;-73
2021/04/28 16:26:34;;;;;;;8.63;7.80;;;18.30;51.90;;;;;;4974497;28;20459;-74
2021/04/28 16:29:00;;;;;;;9.33;8.43;;;18.30;52.00;;;;;;4973891;28;20567;-74
2021/04/28 16:31:26;;;;;;;10.03;9.07;;;18.20;52.20;;;;;;4974501;28;20865;-74
2021/04/28 16:33:52;;;;;;;9.03;8.07;;;18.20;52.30;;;;;;4974768;28;20464;-71
2021/04/28 16:36:20;;;;;;;9.47;8.67;;;18.20;52.80;;;;;;4975171;28;20471;-72
2021/04/28 16:38:46;;;;;;;8.30;7.73;;;18.10;52.50;;;;;;4974821;28;20471;-72
2021/04/28 16:41:12;;;;;;;9.50;8.60;;;18.10;52.50;;;;;;4975099;28;20488;-72
2021/04/28 16:43:38;;;;;;;8.73;8.00;;;18.00;53.30;;;;;;4976004;28;20944;-72
2021/04/28 16:46:05;;;;;;;8.97;8.23;;;18.00;53.20;;;;;;4974087;28;20952;-72
2021/04/28 16:48:31;;;;;;;10.43;9.53;;;18.00;53.20;;;;;;4973757;28;20534;-72
2021/04/28 16:50:57;;;;;;;9.27;8.37;;;18.10;52.90;;;;;;4973666;28;20483;-69
2021/04/28 16:53:24;;;;;;;9.17;8.40;;;18.00;52.80;;;;;;4973421;28;20518;-70